createdAt,value
2023-01-13T00:04:34.604Z,32.18
2023-01-13T00:09:36.155Z,32.24
2023-01-13T00:14:37.606Z,32.45
2023-01-13T00:19:39.052Z,32.50
2023-01-13T00:24:40.536Z,32.47
2023-01-13T00:29:42.013Z,32.47
2023-01-13T00:34:43.493Z,32.38
2023-01-13T00:39:45.703Z,32.48
2023-01-13T00:44:47.156Z,32.58
2023-01-13T00:49:48.913Z,32.74
2023-01-13T00:54:50.364Z,32.67
2023-01-13T00:59:51.803Z,32.83
2023-01-13T01:04:53.286Z,32.93
2023-01-13T01:09:54.725Z,33.15
2023-01-13T01:14:56.197Z,32.89
2023-01-13T01:19:57.653Z,32.92
2023-01-13T01:24:59.639Z,32.98
2023-01-13T01:30:01.118Z,33.01
2023-01-13T01:35:02.619Z,32.90
2023-01-13T01:40:07.043Z,33.13
2023-01-13T01:45:27.381Z,33.02
2023-01-13T01:50:28.952Z,33.07
2023-01-13T01:55:30.815Z,32.95
2023-01-13T02:00:32.407Z,32.98
2023-01-13T02:05:34.418Z,32.85
2023-01-13T02:10:36.273Z,32.90
2023-01-13T02:15:49.822Z,33.12
2023-01-13T02:21:05.799Z,32.97
2023-01-13T02:26:45.760Z,32.90
2023-01-13T02:31:47.811Z,32.98
2023-01-13T02:36:57.268Z,32.81
2023-01-13T02:42:29.932Z,32.95
2023-01-13T02:47:32.559Z,32.83
2023-01-13T02:52:39.329Z,33.00
2023-01-13T02:57:41.170Z,32.84
2023-01-13T03:02:42.673Z,32.82
2023-01-13T03:08:23.149Z,32.88
2023-01-13T03:13:47.060Z,32.88
2023-01-13T03:19:03.452Z,32.97
2023-01-13T03:24:13.821Z,32.71
2023-01-13T03:29:29.236Z,32.58
2023-01-13T03:34:54.298Z,32.52
2023-01-13T03:39:59.361Z,32.50
2023-01-13T03:45:02.817Z,32.66
2023-01-13T03:50:06.721Z,32.67
2023-01-13T03:55:26.637Z,32.72
2023-01-13T04:00:31.386Z,32.67
2023-01-13T04:05:33.889Z,32.67
2023-01-13T04:10:39.422Z,32.70
2023-01-13T04:15:42.469Z,32.65
2023-01-13T04:20:45.144Z,32.64
2023-01-13T04:25:46.652Z,32.80
2023-01-13T04:30:48.091Z,32.82
2023-01-13T04:35:49.534Z,32.66
2023-01-13T04:40:50.911Z,32.81
2023-01-13T04:45:52.318Z,32.91
2023-01-13T04:50:53.745Z,32.74
2023-01-13T04:55:55.253Z,32.83
2023-01-13T05:00:56.672Z,32.63
2023-01-13T05:05:58.124Z,32.73
2023-01-13T05:11:22.570Z,32.92
2023-01-13T05:16:53.154Z,32.85
2023-01-13T05:22:13.058Z,32.84
2023-01-13T05:27:14.443Z,32.71
2023-01-13T05:32:15.831Z,32.90
2023-01-13T05:37:17.391Z,32.86
2023-01-13T05:42:37.386Z,32.74
2023-01-13T05:47:38.832Z,32.88
2023-01-13T05:52:40.211Z,32.65
2023-01-13T05:57:41.766Z,32.90
2023-01-13T06:02:43.180Z,32.64
2023-01-13T06:07:44.573Z,32.64
2023-01-13T06:12:45.957Z,32.78
2023-01-13T06:17:47.471Z,32.75
2023-01-13T06:22:49.847Z,33.06
2023-01-13T06:27:51.331Z,32.97
2023-01-13T06:32:53.787Z,33.07
2023-01-13T06:37:55.715Z,32.99
2023-01-13T06:43:16.702Z,32.99
2023-01-13T06:48:19.777Z,32.74
2023-01-13T06:53:21.159Z,32.88
2023-01-13T06:58:22.870Z,32.68
2023-01-13T07:03:24.239Z,32.79
2023-01-13T07:08:25.727Z,32.88
2023-01-13T07:13:45.926Z,32.74
2023-01-13T07:18:47.381Z,32.55
2023-01-13T07:23:48.814Z,32.29
2023-01-13T07:28:50.236Z,32.24
2023-01-13T07:33:51.655Z,32.22
2023-01-13T07:38:54.808Z,32.10
2023-01-13T07:43:56.396Z,32.03
2023-01-13T07:48:57.785Z,32.08
2023-01-13T07:53:59.155Z,32.02
2023-01-13T07:59:00.623Z,31.97
2023-01-13T08:04:01.995Z,31.94
2023-01-13T08:09:03.796Z,31.85
2023-01-13T08:14:05.256Z,31.91
2023-01-13T08:19:06.670Z,31.68
2023-01-13T08:24:09.591Z,31.81
2023-01-13T08:29:13.687Z,32.44
2023-01-13T08:34:16.171Z,32.58
2023-01-13T08:39:18.558Z,32.82
2023-01-13T08:44:19.943Z,32.53
2023-01-13T08:49:24.390Z,32.52
2023-01-13T08:54:25.788Z,31.75
2023-01-13T08:59:27.203Z,32.19
2023-01-13T09:04:31.705Z,32.17
2023-01-13T09:09:33.148Z,32.18
2023-01-13T09:14:35.507Z,31.94
2023-01-13T09:19:36.990Z,31.96
2023-01-13T09:24:38.374Z,32.04
2023-01-13T09:29:39.761Z,31.86
2023-01-13T09:34:59.299Z,31.88
2023-01-13T09:40:01.118Z,31.95
2023-01-13T09:45:16.675Z,31.99
2023-01-13T09:50:19.967Z,32.03
2023-01-13T09:55:24.247Z,32.14
2023-01-13T10:00:28.325Z,32.09
2023-01-13T10:05:50.096Z,32.32
2023-01-13T10:10:55.242Z,32.58
2023-01-13T10:16:28.026Z,32.54
2023-01-13T10:21:48.116Z,32.50
2023-01-13T10:27:28.511Z,32.43
2023-01-13T10:32:29.913Z,32.32
2023-01-13T10:37:31.529Z,32.39
2023-01-13T10:42:32.960Z,32.20
2023-01-13T10:47:36.454Z,32.15
2023-01-13T10:52:42.687Z,32.19
2023-01-13T10:57:44.072Z,32.14
2023-01-13T11:02:45.527Z,31.90
2023-01-13T11:07:52.342Z,31.95
2023-01-13T11:13:16.750Z,32.09
2023-01-13T11:18:51.564Z,31.82
2023-01-13T11:24:06.699Z,32.13
2023-01-13T11:29:31.325Z,31.99
2023-01-13T11:34:36.975Z,31.85
2023-01-13T11:40:01.310Z,31.69
2023-01-13T11:45:23.425Z,31.70
2023-01-13T11:50:35.037Z,31.57
2023-01-13T11:55:57.609Z,31.69
2023-01-13T12:01:17.361Z,31.93
2023-01-13T12:06:24.342Z,32.10
2023-01-13T12:11:33.709Z,31.84
2023-01-13T12:16:35.126Z,31.88
2023-01-13T12:21:38.769Z,31.44
2023-01-13T12:26:55.057Z,31.30
2023-01-13T12:31:56.511Z,31.06
2023-01-13T12:37:20.635Z,31.41
2023-01-13T12:42:45.472Z,31.22
2023-01-13T12:47:46.845Z,31.13
2023-01-13T12:52:54.970Z,31.19
2023-01-13T12:58:02.433Z,31.06
2023-01-13T13:03:13.640Z,31.19
2023-01-13T13:08:16.637Z,31.18
2023-01-13T13:13:39.724Z,31.22
2023-01-13T13:18:41.095Z,31.37
2023-01-13T13:23:56.915Z,31.15
2023-01-13T13:29:20.548Z,31.11
2023-01-13T13:34:48.234Z,30.84
2023-01-13T13:40:08.172Z,30.98
2023-01-13T13:45:40.118Z,31.02
2023-01-13T13:50:47.488Z,31.09
2023-01-13T13:55:56.030Z,31.06
2023-01-13T14:00:57.609Z,30.61
2023-01-13T14:06:04.032Z,31.05
2023-01-13T14:11:25.335Z,30.88
2023-01-13T14:16:26.710Z,30.41
2023-01-13T14:21:28.627Z,30.88
2023-01-13T14:26:31.153Z,30.80
2023-01-13T14:31:32.527Z,30.76
2023-01-13T14:36:33.743Z,30.93
2023-01-13T14:41:45.258Z,30.93
2023-01-13T14:46:46.640Z,30.95
2023-01-13T14:51:48.055Z,30.72
2023-01-13T14:56:50.744Z,30.81
2023-01-13T15:01:54.180Z,30.73
2023-01-13T15:06:56.233Z,30.67
2023-01-13T15:11:58.727Z,30.71
2023-01-13T15:17:00.167Z,30.64
2023-01-13T15:22:01.532Z,30.62
2023-01-13T15:27:02.915Z,30.67
2023-01-13T15:32:04.488Z,30.66
2023-01-13T15:37:08.154Z,30.71
2023-01-13T15:42:30.708Z,30.56
2023-01-13T15:47:32.095Z,30.74
2023-01-13T15:52:33.549Z,30.60
2023-01-13T15:57:36.199Z,30.73
2023-01-13T16:02:37.592Z,30.50
2023-01-13T16:07:39.053Z,30.95
2023-01-13T16:12:41.069Z,30.55
2023-01-13T16:17:43.373Z,30.80
2023-01-13T16:22:47.545Z,30.61
2023-01-13T16:27:49.060Z,30.63
2023-01-13T16:32:50.490Z,30.49
2023-01-13T16:37:52.207Z,30.55
2023-01-13T16:42:53.640Z,30.52
2023-01-13T16:47:55.016Z,30.55
2023-01-13T16:52:56.390Z,30.48
2023-01-13T16:57:57.830Z,30.16
2023-01-13T17:03:01.058Z,30.00
2023-01-13T17:08:02.555Z,30.11
2023-01-13T17:13:14.799Z,30.22
2023-01-13T17:18:17.560Z,30.26
2023-01-13T17:23:18.949Z,30.32
2023-01-13T17:28:20.330Z,29.70
2023-01-13T17:33:21.768Z,29.92
2023-01-13T17:38:23.186Z,29.68
2023-01-13T17:43:25.182Z,29.04
2023-01-13T17:48:26.575Z,29.79
2023-01-13T17:53:29.222Z,29.70
2023-01-13T17:58:31.474Z,29.73
2023-01-13T18:03:32.849Z,29.46
2023-01-13T18:08:34.245Z,29.86
2023-01-13T18:13:35.906Z,29.62
2023-01-13T18:18:37.905Z,29.34
2023-01-13T18:23:57.823Z,28.96
2023-01-13T18:28:59.222Z,29.50
2023-01-13T18:34:00.594Z,29.63
2023-01-13T18:39:03.313Z,29.37
2023-01-13T18:44:04.754Z,29.93
2023-01-13T18:49:06.128Z,29.54
2023-01-13T18:54:07.531Z,29.75
2023-01-13T18:59:08.910Z,29.72
2023-01-13T19:04:15.389Z,29.79
2023-01-13T19:09:24.512Z,29.13
2023-01-13T19:14:34.844Z,29.91
2023-01-13T19:19:43.820Z,29.59
2023-01-13T19:24:45.748Z,29.59
2023-01-13T19:29:50.728Z,29.81
2023-01-13T19:34:54.895Z,29.38
2023-01-13T19:39:58.010Z,29.68
2023-01-13T19:45:17.653Z,29.39
2023-01-13T19:50:19.443Z,29.86
2023-01-13T19:55:20.868Z,29.54
2023-01-13T20:00:22.963Z,29.70
2023-01-13T20:05:26.074Z,29.94
2023-01-13T20:10:30.107Z,29.35
2023-01-13T20:15:31.524Z,29.84
2023-01-13T20:20:32.929Z,29.65
2023-01-13T20:25:34.347Z,29.46
2023-01-13T20:30:35.873Z,29.55
2023-01-13T20:35:37.241Z,29.55
2023-01-13T20:40:38.619Z,29.84
2023-01-13T20:45:40.377Z,29.80
2023-01-13T20:50:42.043Z,30.05
2023-01-13T20:55:43.426Z,29.95
2023-01-13T21:00:44.833Z,29.58
2023-01-13T21:05:46.221Z,29.74
2023-01-13T21:10:47.595Z,29.91
2023-01-13T21:15:49.046Z,29.80
2023-01-13T21:20:51.501Z,29.75
2023-01-13T21:25:52.877Z,29.60
2023-01-13T21:30:54.343Z,29.94
2023-01-13T21:35:55.837Z,29.80
2023-01-13T21:41:01.999Z,30.02
2023-01-13T21:46:35.320Z,29.88
2023-01-13T21:51:36.692Z,29.74
2023-01-13T21:56:38.063Z,30.00
2023-01-13T22:02:13.239Z,29.90
2023-01-13T22:07:04.418Z,29.88
2023-01-13T22:12:05.794Z,29.95
2023-01-13T22:17:07.522Z,30.04
2023-01-13T22:22:14.033Z,29.96
2023-01-13T22:27:19.925Z,29.90
2023-01-13T22:32:21.303Z,29.97
2023-01-13T22:37:22.683Z,29.75
2023-01-13T22:42:24.057Z,29.99
2023-01-13T22:47:25.482Z,29.43
2023-01-13T22:52:28.372Z,29.95
2023-01-13T22:57:35.941Z,29.94
2023-01-13T23:02:38.139Z,29.72
2023-01-13T23:07:39.605Z,29.91
2023-01-13T23:12:41.022Z,29.66
2023-01-13T23:17:43.258Z,30.11
2023-01-13T23:22:44.834Z,30.01
2023-01-13T23:27:46.247Z,29.97
2023-01-13T23:32:47.612Z,29.90
2023-01-13T23:37:49.030Z,30.29
2023-01-13T23:42:50.467Z,30.31
2023-01-13T23:47:52.168Z,30.24
2023-01-13T23:52:53.764Z,30.12
2023-01-13T23:57:55.150Z,30.10
